Global Endeavor — 3EOJ9 — position and weather

sailwx.info

Track history (hours):
 
Tides and Currents Weather Stations Pressure Air Temp Water Temp Dewpoint Dewpoint Depression Visibility Wind Speed Wind Dir Waves Ship Positions

Global Endeavor

Last reported at 2015-Mar-24 03:23 UTC. Time now 2015-Apr-01 05:51 UTC.
Position N 46°12' W 124°24'.
Warning: this ship's position is 8 days out of date.

Length 175 m; draft 9.9 m.

Type: Cargo ship. MMSI: 356619000.

Date/timePositionNaut miles runAvg speedWind from/ knotsBaromVisibWave heightAir tempDewpointWater temp
2015-Mar-24 03:23N 46°12' W 124°24'8 9.2
2015-Mar-24 02:33N 46°11' W 124°13'10 9.9
2015-Mar-24 01:33N 46°15' W 124°00'9 9.5
2015-Mar-24 00:33N 46°13' W 123°47'1110.9
2015-Mar-23 23:32N 46°16' W 123°31'  
2015-Mar-19 01:33N 46°07' W 122°59'0 0.0
2015-Mar-19 00:33N 46°07' W 122°59'0 0.0
2015-Mar-18 23:33N 46°07' W 122°59'0 0.0
2015-Mar-18 22:33N 46°07' W 122°59'0 0.0
2015-Mar-18 21:33N 46°07' W 122°59'0 0.0
2015-Mar-18 20:33N 46°07' W 122°59'0 0.0
2015-Mar-18 19:33N 46°07' W 122°59'0 0.0
2015-Mar-18 18:33N 46°07' W 122°59'0 0.0
2015-Mar-18 17:33N 46°07' W 122°59'0 0.0
2015-Mar-18 16:33N 46°07' W 122°59'0 0.0
2015-Mar-18 15:33N 46°07' W 122°59'0 0.0
2015-Mar-18 14:33N 46°07' W 122°59'0 0.0
2015-Mar-18 13:33N 46°07' W 122°59'21 0.4
2015-Mar-16 10:33N 46°15' W 123°27'1110.9
2015-Mar-16 09:33N 46°14' W 123°43'9 9.3
2015-Mar-16 08:33N 46°12' W 123°56'9 9.4
2015-Mar-16 07:33N 46°13' W 124°10'8 7.5
2015-Mar-16 06:33N 46°12' W 124°20'  
Track history (hours):
 
Tides and Currents Weather Stations Pressure Air Temp Water Temp Dewpoint Dewpoint Depression Visibility Wind Speed Wind Dir Waves Ship Positions

Global Endeavor

Last reported at 2015-Mar-24 03:23 UTC. Time now 2015-Apr-01 05:51 UTC.
Position N 46°12' W 124°24'.
Warning: this ship's position is 8 days out of date.

Length 175 m; draft 9.9 m.

Type: Cargo ship. MMSI: 356619000.

Date/timePositionNaut miles runAvg speedWind from/ knotsBaromVisibWave heightAir tempDewpointWater temp
2015-Mar-24 03:23N 46°12' W 124°24'8 9.2
2015-Mar-24 02:33N 46°11' W 124°13'10 9.9
2015-Mar-24 01:33N 46°15' W 124°00'9 9.5
2015-Mar-24 00:33N 46°13' W 123°47'1110.9
2015-Mar-23 23:32N 46°16' W 123°31'  
2015-Mar-19 01:33N 46°07' W 122°59'0 0.0
2015-Mar-19 00:33N 46°07' W 122°59'0 0.0
2015-Mar-18 23:33N 46°07' W 122°59'0 0.0
2015-Mar-18 22:33N 46°07' W 122°59'0 0.0
2015-Mar-18 21:33N 46°07' W 122°59'0 0.0
2015-Mar-18 20:33N 46°07' W 122°59'0 0.0
2015-Mar-18 19:33N 46°07' W 122°59'0 0.0
2015-Mar-18 18:33N 46°07' W 122°59'0 0.0
2015-Mar-18 17:33N 46°07' W 122°59'0 0.0
2015-Mar-18 16:33N 46°07' W 122°59'0 0.0
2015-Mar-18 15:33N 46°07' W 122°59'0 0.0
2015-Mar-18 14:33N 46°07' W 122°59'0 0.0
2015-Mar-18 13:33N 46°07' W 122°59'21 0.4
2015-Mar-16 10:33N 46°15' W 123°27'1110.9
2015-Mar-16 09:33N 46°14' W 123°43'9 9.3
2015-Mar-16 08:33N 46°12' W 123°56'9 9.4
2015-Mar-16 07:33N 46°13' W 124°10'8 7.5
2015-Mar-16 06:33N 46°12' W 124°20'  

Dump ship's entire track history